Time;durP1;ratioP1;P1;durP2;ratioP2;P2;SDS_P1;SDS_P2;PMS_P1;PMS_P2;Temp;Humidity;BMP_temperature;BMP_pressure;BME280_temperature;BME280_humidity;BME280_pressure;Samples;Min_cycle;Max_cycle;Signal;HPM_P1;HPM_P2
2022/11/24 00:00:21;;;;;;;;;;;;;;;21.17;28.28;96857.72;5075556;28;928;-72
2022/11/24 00:02:46;;;;;;;;;;;;;;;21.15;28.10;96863.06;5057784;28;921;-72
2022/11/24 00:05:12;;;;;;;;;;;;;;;20.86;28.43;96857.03;5075443;28;1495;-72
2022/11/24 00:07:37;;;;;;;;;;;;;;;20.85;28.57;96855.47;5075480;28;934;-72
2022/11/24 00:10:03;;;;;;;;;;;;;;;20.68;29.05;96867.06;5075164;28;1898;-72
2022/11/24 00:12:28;;;;;;;;;;;;;;;20.94;28.51;96869.63;5075599;28;1017;-72
2022/11/24 00:14:53;;;;;;;;;;;;;;;21.03;28.39;96866.81;5075804;28;1020;-72
2022/11/24 00:17:19;;;;;;;;;;;;;;;20.77;28.77;96858.56;5075476;28;967;-72
2022/11/24 00:19:44;;;;;;;;;;;;;;;20.64;29.14;96863.56;5075195;28;1151;-72
2022/11/24 00:22:10;;;;;;;;;;;;;;;20.60;28.97;96857.28;5056293;28;1067;-72
2022/11/24 00:24:35;;;;;;;;;;;;;;;20.41;29.15;96855.59;5075523;28;970;-72
2022/11/24 00:27:00;;;;;;;;;;;;;;;20.94;28.69;96858.31;5075662;28;1019;-73
2022/11/24 00:29:26;;;;;;;;;;;;;;;21.16;28.10;96850.50;5075376;28;991;-72
2022/11/24 00:31:51;;;;;;;;;;;;;;;20.85;28.64;96858.31;5057621;28;1980;-72
2022/11/24 00:34:17;;;;;;;;;;;;;;;20.76;28.75;96864.72;5057630;28;897;-72
2022/11/24 00:36:42;;;;;;;;;;;;;;;20.44;29.28;96860.34;5057593;28;1248;-72
2022/11/24 00:39:12;;;;;;;;;;;;;;;20.62;29.05;96866.06;5075333;28;931;-72
2022/11/24 00:41:37;;;;;;;;;;;;;;;20.76;28.95;96870.34;5040537;28;1021;-72
2022/11/24 00:44:03;;;;;;;;;;;;;;;20.98;28.43;96875.91;5057386;28;895;-72
2022/11/24 00:46:28;;;;;;;;;;;;;;;21.21;28.06;96864.00;5075108;28;958;-72
2022/11/24 00:48:54;;;;;;;;;;;;;;;20.66;29.01;96866.72;5074991;28;975;-72
2022/11/24 00:51:20;;;;;;;;;;;;;;;20.51;29.42;96857.25;5075222;28;1914;-72
2022/11/24 00:53:45;;;;;;;;;;;;;;;20.51;29.39;96862.88;5057095;28;868;-72
2022/11/24 00:56:11;;;;;;;;;;;;;;;20.78;29.10;96868.66;5075323;28;915;-72
2022/11/24 00:58:36;;;;;;;;;;;;;;;20.94;28.56;96859.09;5057618;28;963;-72
2022/11/24 01:01:21;;;;;;;;;;;;;;;21.00;28.52;96862.09;5074973;28;922;-72
2022/11/24 01:03:47;;;;;;;;;;;;;;;20.72;29.10;96859.19;5074992;28;1073;-72
2022/11/24 01:06:12;;;;;;;;;;;;;;;20.58;28.97;96859.78;5057324;28;953;-72
2022/11/24 01:08:38;;;;;;;;;;;;;;;20.60;29.12;96871.41;5074753;28;954;-72
2022/11/24 01:11:17;;;;;;;;;;;;;;;21.12;28.51;96872.47;5057328;28;1909;-72
2022/11/24 01:13:43;;;;;;;;;;;;;;;21.01;28.44;96874.97;5057065;28;925;-72
2022/11/24 01:16:27;;;;;;;;;;;;;;;20.86;28.75;96868.34;5057531;28;921;-72
2022/11/24 01:18:52;;;;;;;;;;;;;;;20.72;29.25;96870.50;5240716;22;3520;-72
2022/11/24 01:21:19;;;;;;;;;;;;;;;21.47;28.39;96869.41;5020812;28;1419;-72
2022/11/24 01:23:44;;;;;;;;;;;;;;;21.20;29.16;96868.09;5056348;28;769;-72
2022/11/24 01:26:10;;;;;;;;;;;;;;;20.73;30.20;96866.44;5041617;28;675;-72
2022/11/24 01:28:35;;;;;;;;;;;;;;;20.46;30.14;96864.28;5025429;28;1429;-72
2022/11/24 01:31:02;;;;;;;;;;;;;;;20.56;29.99;96862.28;5041262;28;1902;-72
2022/11/24 01:33:27;;;;;;;;;;;;;;;20.76;29.88;96853.41;5058924;28;802;-72
2022/11/24 01:35:53;;;;;;;;;;;;;;;21.25;28.97;96852.56;5051049;28;759;-72
2022/11/24 01:38:18;;;;;;;;;;;;;;;20.99;29.14;96860.53;5041522;28;738;-72
2022/11/24 01:40:44;;;;;;;;;;;;;;;20.63;29.54;96856.34;5058841;28;837;-72
2022/11/24 01:43:16;;;;;;;;;;;;;;;20.53;29.88;96854.75;5041664;28;873;-72
2022/11/24 01:45:43;;;;;;;;;;;;;;;20.54;29.90;96859.94;5024640;28;837;-73
2022/11/24 01:48:12;;;;;;;;;;;;;;;21.11;29.00;96845.47;5058842;28;802;-72
2022/11/24 01:50:37;;;;;;;;;;;;;;;21.18;28.76;96845.16;5041075;28;1902;-72
2022/11/24 01:53:02;;;;;;;;;;;;;;;20.77;29.08;96832.34;5024700;28;1115;-72
2022/11/24 01:55:33;;;;;;;;;;;;;;;20.81;28.89;96839.44;5040868;28;763;-72
2022/11/24 01:58:25;;;;;;;;;;;;;;;20.44;29.45;96847.00;5024654;28;1291;-72
2022/11/24 02:00:51;;;;;;;;;;;;;;;20.80;29.35;96848.38;4977468;28;1028;-72
2022/11/24 02:03:17;;;;;;;;;;;;;;;20.89;29.14;96828.63;4929452;28;923;-72
2022/11/24 02:05:44;;;;;;;;;;;;;;;21.00;28.89;96839.47;4961406;28;873;-72
2022/11/24 02:08:12;;;;;;;;;;;;;;;20.49;29.27;96840.75;4977467;28;747;-72
2022/11/24 02:10:38;;;;;;;;;;;;;;;20.43;29.24;96841.81;4961365;28;1903;-72
2022/11/24 02:13:03;;;;;;;;;;;;;;;20.56;29.25;96839.69;4961572;28;747;-72
2022/11/24 02:15:29;;;;;;;;;;;;;;;20.98;28.83;96827.84;4977430;28;818;-72
2022/11/24 02:17:54;;;;;;;;;;;;;;;20.98;28.53;96836.31;4961495;28;1027;-72
2022/11/24 02:20:19;;;;;;;;;;;;;;;20.91;28.67;96831.75;4977479;28;1297;-72
2022/11/24 02:23:14;;;;;;;;;;;;;;;20.83;28.43;96829.69;4961437;28;846;-72
2022/11/24 02:25:45;;;;;;;;;;;;;;;20.70;28.74;96827.78;4919553;29;1047;-72
2022/11/24 02:28:14;;;;;;;;;;;;;;;21.22;27.90;96828.81;4919249;29;1045;-72
2022/11/24 02:30:39;;;;;;;;;;;;;;;20.88;28.59;96832.72;4919517;29;1989;-72
2022/11/24 02:33:05;;;;;;;;;;;;;;;21.02;28.39;96828.47;4919666;29;906;-72
2022/11/24 02:35:30;;;;;;;;;;;;;;;20.66;28.67;96815.84;4918417;29;906;-72
2022/11/24 02:37:56;;;;;;;;;;;;;;;20.45;29.24;96831.59;4967408;28;1005;-72
2022/11/24 02:40:25;;;;;;;;;;;;;;;20.46;29.16;96829.56;4996083;28;808;-72
2022/11/24 02:42:54;;;;;;;;;;;;;;;20.67;28.92;96828.72;4980015;28;999;-72
2022/11/24 02:45:19;;;;;;;;;;;;;;;21.03;28.68;96832.88;4980121;28;1019;-72
2022/11/24 02:47:45;;;;;;;;;;;;;;;20.84;28.62;96836.94;4995928;28;876;-72
2022/11/24 02:50:10;;;;;;;;;;;;;;;20.86;28.76;96842.91;4963775;28;1907;-72
2022/11/24 02:52:36;;;;;;;;;;;;;;;20.72;28.83;96833.75;4979913;28;848;-72
2022/11/24 02:55:01;;;;;;;;;;;;;;;20.96;28.61;96844.50;4995753;28;896;-72
2022/11/24 02:57:27;;;;;;;;;;;;;;;21.02;28.62;96834.91;4995701;28;727;-72
2022/11/24 02:59:52;;;;;;;;;;;;;;;21.09;28.30;96842.31;4991960;28;911;-72
2022/11/24 03:02:17;;;;;;;;;;;;;;;20.38;29.14;96845.25;5032937;28;919;-72
2022/11/24 03:04:43;;;;;;;;;;;;;;;20.55;28.86;96843.75;5039512;28;853;-71
2022/11/24 03:07:09;;;;;;;;;;;;;;;20.55;29.00;96846.59;5057305;28;926;-72
2022/11/24 03:09:34;;;;;;;;;;;;;;;21.03;28.38;96836.47;5039494;28;1116;-72
2022/11/24 03:11:59;;;;;;;;;;;;;;;21.06;28.36;96838.38;5056772;28;1976;-72
2022/11/24 03:14:25;;;;;;;;;;;;;;;20.98;28.55;96847.63;5005641;28;941;-72
2022/11/24 03:16:50;;;;;;;;;;;;;;;20.67;28.58;96845.66;5056994;28;937;-72
2022/11/24 03:19:16;;;;;;;;;;;;;;;20.51;28.88;96854.41;5039276;28;1179;-72
2022/11/24 03:21:41;;;;;;;;;;;;;;;20.75;28.58;96852.63;5039217;28;994;-72
2022/11/24 03:24:07;;;;;;;;;;;;;;;20.94;28.54;96841.38;5057267;28;901;-72
2022/11/24 03:26:32;;;;;;;;;;;;;;;20.95;28.16;96848.59;5057126;28;866;-72
2022/11/24 03:28:58;;;;;;;;;;;;;;;21.02;28.18;96848.28;5056871;28;938;-72
2022/11/24 03:31:24;;;;;;;;;;;;;;;20.86;28.24;96848.56;5056865;28;1909;-72
2022/11/24 03:33:49;;;;;;;;;;;;;;;20.68;28.91;96847.25;5038700;28;1024;-72
2022/11/24 03:36:15;;;;;;;;;;;;;;;20.45;29.17;96850.59;5056479;28;877;-72
2022/11/24 03:38:41;;;;;;;;;;;;;;;20.23;29.67;96861.97;5005414;28;964;-72
2022/11/24 03:41:06;;;;;;;;;;;;;;;20.73;28.43;96865.66;5056794;28;1065;-73
2022/11/24 03:43:32;;;;;;;;;;;;;;;21.01;28.15;96858.00;5033918;28;1670;-74
2022/11/24 03:45:57;;;;;;;;;;;;;;;20.89;28.08;96873.09;5034409;28;959;-73
2022/11/24 03:48:23;;;;;;;;;;;;;;;20.79;28.61;96881.53;5030393;28;1131;-74
2022/11/24 03:50:55;;;;;;;;;;;;;;;20.70;28.39;96884.31;4992123;28;1915;-73
2022/11/24 03:53:20;;;;;;;;;;;;;;;21.28;27.92;96883.50;4986211;28;1192;-73
2022/11/24 03:55:45;;;;;;;;;;;;;;;21.10;27.76;96889.16;4994187;28;1186;-73
2022/11/24 03:58:11;;;;;;;;;;;;;;;21.00;28.22;96890.38;4969720;28;1254;-73
2022/11/24 04:00:36;;;;;;;;;;;;;;;20.74;28.35;96896.28;4994143;28;1257;-73
2022/11/24 04:03:02;;;;;;;;;;;;;;;20.85;28.18;96893.00;4993814;28;1230;-74
2022/11/24 04:05:27;;;;;;;;;;;;;;;20.45;29.14;96887.31;4993480;28;1234;-74
2022/11/24 04:08:02;;;;;;;;;;;;;;;21.06;28.13;96888.50;4983502;28;1272;-74
2022/11/24 04:10:28;;;;;;;;;;;;;;;21.04;28.08;96885.38;4982929;28;1918;-74
2022/11/24 04:12:53;;;;;;;;;;;;;;;20.66;28.27;96894.97;4977638;28;1350;-74
2022/11/24 04:15:19;;;;;;;;;;;;;;;20.71;28.49;96902.06;4955853;29;1012;-74
2022/11/24 04:17:45;;;;;;;;;;;;;;;20.63;28.62;96897.97;4978752;28;1160;-74
2022/11/24 04:20:10;;;;;;;;;;;;;;;20.83;28.35;96906.03;4982027;28;1429;-74
2022/11/24 04:22:36;;;;;;;;;;;;;;;21.12;27.72;96906.44;4985545;28;1353;-74
2022/11/24 04:25:01;;;;;;;;;;;;;;;21.08;27.91;96902.94;4983141;28;1370;-74
2022/11/24 04:27:27;;;;;;;;;;;;;;;20.59;28.76;96911.44;4992612;28;1417;-74
2022/11/24 04:29:52;;;;;;;;;;;;;;;20.63;28.84;96912.88;5035905;28;1909;-74
2022/11/24 04:32:18;;;;;;;;;;;;;;;20.54;28.69;96918.50;5035885;28;942;-75
2022/11/24 04:34:43;;;;;;;;;;;;;;;20.97;28.03;96919.59;5036153;28;913;-74
2022/11/24 04:37:08;;;;;;;;;;;;;;;21.11;27.67;96919.00;5035908;28;1011;-74
2022/11/24 04:39:34;;;;;;;;;;;;;;;20.78;28.09;96925.19;4984593;28;1029;-75
2022/11/24 04:41:59;;;;;;;;;;;;;;;20.40;29.16;96924.66;5035726;28;932;-73
2022/11/24 04:44:25;;;;;;;;;;;;;;;20.55;28.71;96922.88;5035873;28;875;-73
2022/11/24 04:46:50;;;;;;;;;;;;;;;20.85;28.67;96917.69;5035990;28;917;-72
2022/11/24 04:49:16;;;;;;;;;;;;;;;20.94;28.16;96926.97;5035431;28;939;-72
2022/11/24 04:51:41;;;;;;;;;;;;;;;21.16;28.07;96914.78;5036270;28;1993;-72
2022/11/24 04:54:07;;;;;;;;;;;;;;;20.68;28.63;96926.41;5035649;28;927;-72
2022/11/24 04:56:32;;;;;;;;;;;;;;;20.51;28.78;96922.22;5035650;28;893;-72
2022/11/24 04:58:58;;;;;;;;;;;;;;;20.38;29.12;96924.34;5037005;28;873;-72
2022/11/24 05:01:23;;;;;;;;;;;;;;;20.79;28.42;96935.25;5039719;28;847;-73
2022/11/24 05:03:51;;;;;;;;;;;;;;;20.88;28.50;96931.69;5039807;28;941;-72
2022/11/24 05:06:17;;;;;;;;;;;;;;;21.01;27.90;96937.19;5039553;28;910;-72
2022/11/24 05:08:42;;;;;;;;;;;;;;;20.80;28.19;96948.13;5039495;28;967;-73
2022/11/24 05:11:08;;;;;;;;;;;;;;;20.42;28.90;96942.75;5038890;28;1911;-72
2022/11/24 05:13:33;;;;;;;;;;;;;;;20.62;28.81;96950.84;5039595;28;909;-73
2022/11/24 05:16:00;;;;;;;;;;;;;;;20.94;28.48;96949.59;5039603;28;1023;-73
2022/11/24 05:18:25;;;;;;;;;;;;;;;21.04;27.99;96948.38;5039825;28;964;-73
2022/11/24 05:20:50;;;;;;;;;;;;;;;21.05;27.93;96943.50;5056192;28;1102;-72
2022/11/24 05:23:16;;;;;;;;;;;;;;;20.96;28.30;96954.78;5023694;28;979;-73
2022/11/24 05:25:41;;;;;;;;;;;;;;;20.51;29.06;96947.66;5059071;28;1001;-73
2022/11/24 05:28:10;;;;;;;;;;;;;;;20.48;29.26;96962.72;5058809;28;980;-73
2022/11/24 05:30:36;;;;;;;;;;;;;;;20.64;28.59;96959.69;5058781;28;1914;-72
2022/11/24 05:33:05;;;;;;;;;;;;;;;21.02;28.22;96961.41;5058695;28;940;-73
2022/11/24 05:35:31;;;;;;;;;;;;;;;20.97;28.39;96965.63;5196761;22;3527;-74
2022/11/24 05:37:57;;;;;;;;;;;;;;;21.25;28.49;96965.72;5079337;28;761;-74
2022/11/24 05:40:22;;;;;;;;;;;;;;;20.84;29.62;96967.00;5061196;28;726;-74
2022/11/24 05:42:47;;;;;;;;;;;;;;;20.81;29.90;96963.03;5079234;28;817;-74
2022/11/24 05:45:17;;;;;;;;;;;;;;;20.72;29.83;96960.94;5044599;28;810;-74
2022/11/24 05:47:42;;;;;;;;;;;;;;;20.53;30.35;96960.09;5061279;28;769;-74
2022/11/24 05:50:08;;;;;;;;;;;;;;;20.70;30.31;96963.47;5060945;28;1922;-74
2022/11/24 05:52:34;;;;;;;;;;;;;;;21.08;29.85;96970.84;5044198;28;738;-74
2022/11/24 05:54:59;;;;;;;;;;;;;;;21.39;29.48;96972.84;5043556;28;1026;-74
2022/11/24 05:57:25;;;;;;;;;;;;;;;20.85;30.44;96974.22;5079059;28;930;-74
2022/11/24 05:59:50;;;;;;;;;;;;;;;20.74;30.48;96975.44;5060681;28;1094;-74
2022/11/24 06:02:16;;;;;;;;;;;;;;;20.80;30.32;96979.22;5078483;28;944;-74
2022/11/24 06:04:41;;;;;;;;;;;;;;;20.66;30.59;96979.78;5078849;28;963;-75
2022/11/24 06:07:07;;;;;;;;;;;;;;;21.02;30.13;96986.84;5078297;28;972;-74
2022/11/24 06:09:35;;;;;;;;;;;;;;;21.06;30.23;96993.16;5060694;28;1039;-74
2022/11/24 06:12:00;;;;;;;;;;;;;;;20.87;30.25;97005.63;5060443;28;1979;-74
2022/11/24 06:14:26;;;;;;;;;;;;;;;20.91;30.17;97007.06;5078715;28;856;-74
2022/11/24 06:16:52;;;;;;;;;;;;;;;20.90;30.24;97004.72;5078433;28;969;-74
2022/11/24 06:19:17;;;;;;;;;;;;;;;20.68;30.87;96999.91;5060646;28;927;-74
2022/11/24 06:21:42;;;;;;;;;;;;;;;20.98;30.58;97003.16;5061081;28;977;-74
2022/11/24 06:24:08;;;;;;;;;;;;;;;20.98;30.39;97006.00;5078348;28;991;-74
2022/11/24 06:26:33;;;;;;;;;;;;;;;20.84;30.42;97009.41;5036233;28;1035;-74
2022/11/24 06:28:59;;;;;;;;;;;;;;;20.79;30.83;97011.56;5035928;28;1573;-74
2022/11/24 06:31:24;;;;;;;;;;;;;;;20.89;30.17;97012.41;5019246;28;1918;-74
2022/11/24 06:33:50;;;;;;;;;;;;;;;20.90;30.28;97016.03;5035841;28;965;-73
2022/11/24 06:36:15;;;;;;;;;;;;;;;21.05;30.65;97025.53;5035685;28;1207;-74
2022/11/24 06:38:41;;;;;;;;;;;;;;;21.20;30.45;97017.25;5035709;28;1074;-74
2022/11/24 06:41:07;;;;;;;;;;;;;;;20.96;30.28;97026.25;5035896;28;1296;-74
2022/11/24 06:43:32;;;;;;;;;;;;;;;20.91;30.58;97023.25;5035784;28;1026;-74
2022/11/24 06:45:58;;;;;;;;;;;;;;;20.68;30.98;97016.84;5035779;28;1020;-74
2022/11/24 06:48:23;;;;;;;;;;;;;;;20.84;30.67;97024.31;5035722;28;1057;-74
2022/11/24 06:50:49;;;;;;;;;;;;;;;21.21;30.27;97025.28;5035642;28;1939;-74
2022/11/24 06:53:15;;;;;;;;;;;;;;;21.31;30.38;97024.06;5035791;28;992;-74
2022/11/24 06:55:40;;;;;;;;;;;;;;;20.75;30.88;97025.06;5035583;28;984;-74
2022/11/24 06:58:06;;;;;;;;;;;;;;;20.95;30.49;97029.56;5066272;28;941;-74
2022/11/24 07:00:31;;;;;;;;;;;;;;;20.78;30.66;97032.63;5077492;28;969;-74
2022/11/24 07:02:57;;;;;;;;;;;;;;;20.60;31.02;97029.69;5077886;28;987;-75
2022/11/24 07:05:22;;;;;;;;;;;;;;;21.07;31.10;97028.66;5077593;28;1064;-75
2022/11/24 07:07:48;;;;;;;;;;;;;;;20.94;31.10;97028.00;5077110;28;948;-74
2022/11/24 07:10:13;;;;;;;;;;;;;;;20.80;30.93;97027.28;5077315;28;1982;-75
2022/11/24 07:12:39;;;;;;;;;;;;;;;20.75;30.90;97022.22;5077790;28;902;-75
2022/11/24 07:15:04;;;;;;;;;;;;;;;20.62;31.34;97018.69;5077435;28;904;-74
2022/11/24 07:17:30;;;;;;;;;;;;;;;20.81;30.96;97014.72;5077355;28;1037;-74
2022/11/24 07:19:55;;;;;;;;;;;;;;;21.41;30.35;97009.97;5077548;28;1023;-74
2022/11/24 07:22:21;;;;;;;;;;;;;;;21.35;30.40;97008.97;5077076;28;973;-75
2022/11/24 07:24:46;;;;;;;;;;;;;;;21.08;30.72;97005.56;5059407;28;1134;-74
2022/11/24 07:27:12;;;;;;;;;;;;;;;20.92;30.76;97013.50;5042814;28;1182;-75
2022/11/24 07:29:37;;;;;;;;;;;;;;;21.00;30.63;97003.50;5077363;28;960;-74
2022/11/24 07:32:03;;;;;;;;;;;;;;;20.89;30.69;97008.81;5059566;28;1906;-74
2022/11/24 07:34:28;;;;;;;;;;;;;;;21.02;31.31;96995.34;5076848;28;843;-74
2022/11/24 07:36:53;;;;;;;;;;;;;;;21.28;30.45;97007.22;5059210;28;1254;-74
2022/11/24 07:39:19;;;;;;;;;;;;;;;21.10;30.50;97002.28;5077032;28;931;-74
2022/11/24 07:41:44;;;;;;;;;;;;;;;20.88;30.88;96995.88;5077195;28;989;-74
2022/11/24 07:44:10;;;;;;;;;;;;;;;20.68;31.13;97002.72;5058831;28;987;-74
2022/11/24 07:46:35;;;;;;;;;;;;;;;21.02;31.00;97009.47;5059259;28;973;-74
2022/11/24 07:49:01;;;;;;;;;;;;;;;21.02;30.83;97006.66;5076822;28;1063;-74
2022/11/24 07:51:26;;;;;;;;;;;;;;;20.91;31.16;97009.13;5076805;28;1911;-74
2022/11/24 07:53:51;;;;;;;;;;;;;;;20.72;30.82;97020.31;5076514;28;862;-74
2022/11/24 07:56:17;;;;;;;;;;;;;;;20.88;30.65;97018.50;5076537;28;924;-74
2022/11/24 07:58:42;;;;;;;;;;;;;;;20.89;30.57;97025.75;5024508;28;1071;-74
2022/11/24 08:01:14;;;;;;;;;;;;;;;20.60;30.83;97029.69;5058581;28;985;-74
2022/11/24 08:03:40;;;;;;;;;;;;;;;21.12;30.33;97022.41;5076415;28;969;-74
2022/11/24 08:06:06;;;;;;;;;;;;;;;21.13;30.27;97018.31;5076635;28;853;-75
2022/11/24 08:08:34;;;;;;;;;;;;;;;20.19;30.34;96895.97;5076506;28;915;-74
2022/11/24 08:11:06;;;;;;;;;;;;;;;20.86;30.36;97021.81;5059120;28;1894;-74
2022/11/24 08:13:32;;;;;;;;;;;;;;;20.64;30.75;97016.19;5058621;28;879;-75
2022/11/24 08:15:57;;;;;;;;;;;;;;;21.12;30.18;97019.56;5076452;28;883;-74
2022/11/24 08:18:23;;;;;;;;;;;;;;;21.16;30.31;97025.09;5076330;28;913;-75
2022/11/24 08:20:49;;;;;;;;;;;;;;;21.06;30.09;97018.59;5058869;28;904;-75
2022/11/24 08:23:14;;;;;;;;;;;;;;;20.76;30.48;97017.34;5058586;28;946;-75
2022/11/24 08:25:39;;;;;;;;;;;;;;;20.74;30.28;97026.31;5058432;28;1081;-75
2022/11/24 08:28:05;;;;;;;;;;;;;;;20.59;30.68;97013.19;5075921;28;866;-74
2022/11/24 08:30:30;;;;;;;;;;;;;;;21.07;30.23;97020.19;5058366;28;1906;-75
2022/11/24 08:33:00;;;;;;;;;;;;;;;21.03;29.97;97019.53;5076165;28;1023;-74
2022/11/24 08:35:25;;;;;;;;;;;;;;;21.44;29.21;97018.28;5079746;28;1242;-75
2022/11/24 08:37:51;;;;;;;;;;;;;;;20.88;30.08;97018.50;5063034;28;894;-75
2022/11/24 08:40:16;;;;;;;;;;;;;;;20.60;30.46;97015.53;5080369;28;959;-74
2022/11/24 08:42:42;;;;;;;;;;;;;;;20.47;30.86;97017.69;5080401;28;928;-75
2022/11/24 08:45:07;;;;;;;;;;;;;;;20.99;30.23;97010.41;5080239;28;949;-75
2022/11/24 08:47:33;;;;;;;;;;;;;;;20.95;30.39;97021.06;5079980;28;932;-74
2022/11/24 08:49:58;;;;;;;;;;;;;;;20.75;30.07;97025.06;5080283;28;1914;-75
2022/11/24 08:52:24;;;;;;;;;;;;;;;20.60;30.84;97012.72;5079919;28;914;-75
2022/11/24 08:54:49;;;;;;;;;;;;;;;20.58;30.76;97023.72;5062439;28;1022;-75
2022/11/24 08:57:15;;;;;;;;;;;;;;;20.68;30.25;97027.38;5062139;28;882;-75
2022/11/24 08:59:40;;;;;;;;;;;;;;;21.10;29.84;97024.91;5079794;28;959;-75
2022/11/24 09:02:06;;;;;;;;;;;;;;;21.28;29.44;97024.97;5079791;28;890;-75
2022/11/24 09:04:31;;;;;;;;;;;;;;;20.92;29.82;97036.13;5077010;28;943;-76
2022/11/24 09:06:57;;;;;;;;;;;;;;;20.67;30.29;97034.25;5061871;28;944;-75
2022/11/24 09:09:22;;;;;;;;;;;;;;;20.67;30.38;97032.22;5079755;28;1087;-75
2022/11/24 09:11:48;;;;;;;;;;;;;;;21.00;30.09;97031.78;5079908;28;1906;-75
2022/11/24 09:14:13;;;;;;;;;;;;;;;21.05;29.88;97022.69;5079541;28;903;-76
2022/11/24 09:16:38;;;;;;;;;;;;;;;20.99;29.72;97025.34;5061703;28;971;-75
2022/11/24 09:19:04;;;;;;;;;;;;;;;20.92;29.86;97022.78;5062015;28;1518;-75
2022/11/24 09:21:30;;;;;;;;;;;;;;;20.66;29.92;97016.53;5062063;28;948;-76
2022/11/24 09:23:56;;;;;;;;;;;;;;;20.41;30.34;97017.44;5061042;28;926;-75
2022/11/24 09:26:22;;;;;;;;;;;;;;;20.91;30.17;97020.44;5079890;28;1158;-75
2022/11/24 09:28:48;;;;;;;;;;;;;;;21.26;29.51;97021.81;5061681;28;897;-76
2022/11/24 09:31:15;;;;;;;;;;;;;;;21.30;29.11;97022.50;5079318;28;2096;-75
2022/11/24 09:33:40;;;;;;;;;;;;;;;20.73;30.19;97027.56;5079397;28;913;-76
2022/11/24 09:36:06;;;;;;;;;;;;;;;20.70;29.95;97024.88;5078928;28;1166;-75
2022/11/24 09:38:31;;;;;;;;;;;;;;;20.57;30.12;97026.97;5079420;28;848;-75
2022/11/24 09:41:09;;;;;;;;;;;;;;;21.12;29.37;97032.94;5079120;28;916;-75
2022/11/24 09:43:37;;;;;;;;;;;;;;;21.03;29.55;97025.19;5079005;28;896;-75
2022/11/24 09:46:03;;;;;;;;;;;;;;;20.82;29.83;97021.16;5060686;28;900;-75
2022/11/24 09:48:29;;;;;;;;;;;;;;;20.97;29.63;97027.03;5078928;28;903;-75
2022/11/24 09:50:56;;;;;;;;;;;;;;;20.81;29.74;97023.19;5061040;28;1905;-76
2022/11/24 09:53:31;;;;;;;;;;;;;;;21.44;28.92;97023.16;5078866;28;968;-76
2022/11/24 09:56:17;;;;;;;;;;;;;;;21.21;29.30;97030.13;5060922;28;949;-75
2022/11/24 09:58:44;;;;;;;;;;;;;;;20.87;29.61;97029.03;5078685;28;971;-75
2022/11/24 10:01:12;;;;;;;;;;;;;;;20.72;29.82;97023.13;5079180;28;899;-75
2022/11/24 10:03:42;;;;;;;;;;;;;;;20.97;29.30;97027.03;5056680;28;929;-76
2022/11/24 10:06:31;;;;;;;;;;;;;;;20.54;30.22;97023.84;5056543;28;971;-75
2022/11/24 10:09:14;;;;;;;;;;;;;;;20.91;29.97;97026.06;4996913;28;1065;-75
2022/11/24 10:11:52;;;;;;;;;;;;;;;21.20;29.06;97018.03;4996898;28;1914;-75
2022/11/24 10:14:29;;;;;;;;;;;;;;;20.90;29.32;97022.47;4997045;28;1122;-75
2022/11/24 10:17:04;;;;;;;;;;;;;;;20.91;29.33;97034.56;4996316;28;1970;-76
2022/11/24 10:19:29;;;;;;;;;;;;;;;20.93;29.65;97032.03;4996771;28;913;-75
2022/11/24 10:22:18;;;;;;;;;;;;;;;21.03;29.27;97019.53;4980608;28;995;-75
2022/11/24 10:24:43;;;;;;;;;;;;;;;21.29;29.24;97020.09;4938811;29;1046;-76
2022/11/24 10:27:17;;;;;;;;;;;;;;;20.73;29.75;97021.91;4938743;29;997;-77
2022/11/24 10:29:42;;;;;;;;;;;;;;;20.60;30.12;97021.19;4938801;29;919;-77
2022/11/24 10:32:24;;;;;;;;;;;;;;;20.75;29.57;97022.22;4938526;29;1910;-77
2022/11/24 10:34:50;;;;;;;;;;;;;;;20.85;30.25;97030.75;4922634;29;1106;-76
2022/11/24 10:37:29;;;;;;;;;;;;;;;20.87;29.83;97022.59;4938498;29;1395;-76
2022/11/24 10:40:09;;;;;;;;;;;;;;;21.05;29.82;97034.00;4938673;29;1059;-76
2022/11/24 10:42:39;;;;;;;;;;;;;;;20.64;30.26;97032.38;4938391;29;954;-76
2022/11/24 10:45:13;;;;;;;;;;;;;;;20.84;29.88;97040.50;4948802;28;1037;-77
2022/11/24 10:47:39;;;;;;;;;;;;;;;20.70;29.95;97030.53;5016089;28;1129;-77
2022/11/24 10:50:14;;;;;;;;;;;;;;;21.11;29.78;97037.00;4999365;28;1910;-76
2022/11/24 10:52:40;;;;;;;;;;;;;;;21.10;29.72;97041.88;5015986;28;971;-77
2022/11/24 10:55:05;;;;;;;;;;;;;;;21.08;30.10;97050.03;5032287;28;963;-76
2022/11/24 10:57:31;;;;;;;;;;;;;;;20.73;30.41;97041.69;5031589;28;986;-76
2022/11/24 10:59:56;;;;;;;;;;;;;;;20.97;29.86;97049.66;5015527;28;913;-76
2022/11/24 11:02:26;;;;;;;;;;;;;;;20.64;30.53;97038.81;5078515;28;1014;-77
2022/11/24 11:04:51;;;;;;;;;;;;;;;20.73;30.33;97050.19;5058724;28;1057;-76
2022/11/24 11:07:18;;;;;;;;;;;;;;;21.05;30.10;97051.75;5058500;28;915;-76
2022/11/24 11:09:44;;;;;;;;;;;;;;;20.90;30.34;97044.31;5058594;28;1036;-76
2022/11/24 11:12:10;;;;;;;;;;;;;;;20.67;30.47;97046.34;5058705;28;1910;-76
2022/11/24 11:14:35;;;;;;;;;;;;;;;20.78;30.65;97043.94;5055193;28;1053;-76
2022/11/24 11:17:01;;;;;;;;;;;;;;;20.75;30.28;97052.53;5055192;28;970;-76
2022/11/24 11:19:27;;;;;;;;;;;;;;;20.87;30.31;97045.22;5054944;28;974;-76
2022/11/24 11:22:01;;;;;;;;;;;;;;;20.90;30.42;97044.31;5054883;28;907;-76
2022/11/24 11:24:27;;;;;;;;;;;;;;;20.89;30.66;97042.72;5054983;28;977;-76
2022/11/24 11:27:00;;;;;;;;;;;;;;;20.95;30.51;97032.38;5038420;28;976;-77
2022/11/24 11:29:25;;;;;;;;;;;;;;;20.65;30.73;97040.38;5038591;28;1355;-77
2022/11/24 11:32:00;;;;;;;;;;;;;;;20.71;30.63;97032.88;5037919;28;1910;-77
2022/11/24 11:34:26;;;;;;;;;;;;;;;20.29;31.17;97035.25;5038308;28;928;-76
2022/11/24 11:36:52;;;;;;;;;;;;;;;20.68;31.47;97038.69;5014596;28;1240;-76
2022/11/24 11:39:22;;;;;;;;;;;;;;;20.81;30.93;97031.69;5015276;28;1014;-76
2022/11/24 11:41:48;;;;;;;;;;;;;;;21.00;30.80;97038.22;4998217;28;952;-76
2022/11/24 11:44:19;;;;;;;;;;;;;;;20.92;30.77;97038.97;4998510;28;1123;-77
2022/11/24 11:46:44;;;;;;;;;;;;;;;20.67;30.91;97032.22;4998528;28;966;-76
2022/11/24 11:49:10;;;;;;;;;;;;;;;20.52;31.10;97031.19;4982270;28;999;-76
2022/11/24 11:51:54;;;;;;;;;;;;;;;21.19;30.33;97036.28;4981919;28;1887;-76
2022/11/24 11:54:34;;;;;;;;;;;;;;;21.07;30.37;97031.50;5014912;28;908;-76
2022/11/24 11:57:08;;;;;;;;;;;;;;;21.18;30.17;97043.16;5014224;28;843;-77
2022/11/24 11:59:33;;;;;;;;;;;;;;;20.70;30.88;97036.97;5014403;28;802;-76
2022/11/24 12:02:02;;;;;;;;;;;;;;;20.69;31.10;97035.38;5014417;28;891;-76
2022/11/24 12:04:27;;;;;;;;;;;;;;;20.79;30.62;97037.03;5014984;28;787;-76
2022/11/24 12:06:55;;;;;;;;;;;;;;;20.73;31.16;97044.53;5018235;28;909;-76
2022/11/24 12:09:20;;;;;;;;;;;;;;;20.76;31.27;97049.25;5054081;28;812;-76
2022/11/24 12:12:12;;;;;;;;;;;;;;;21.17;30.71;97047.25;5055777;28;1983;-77
2022/11/24 12:14:41;;;;;;;;;;;;;;;21.08;30.62;97044.38;5033992;28;1002;-76
2022/11/24 12:17:07;;;;;;;;;;;;;;;20.88;31.03;97058.09;5017898;28;975;-76
2022/11/24 12:19:36;;;;;;;;;;;;;;;20.66;31.26;97044.00;5033998;28;859;-77
2022/11/24 12:22:06;;;;;;;;;;;;;;;20.71;31.40;97049.84;5033726;28;1216;-76
2022/11/24 12:24:44;;;;;;;;;;;;;;;21.12;30.72;97045.03;5017868;28;1034;-76
2022/11/24 12:27:14;;;;;;;;;;;;;;;21.03;30.86;97044.97;5034280;28;970;-77
2022/11/24 12:29:45;;;;;;;;;;;;;;;20.90;30.98;97055.63;5017580;28;1049;-76
2022/11/24 12:32:29;;;;;;;;;;;;;;;20.76;31.57;97043.59;5033673;28;1922;-78
2022/11/24 12:34:58;;;;;;;;;;;;;;;20.77;31.42;97053.63;5034268;28;962;-76
2022/11/24 12:37:30;;;;;;;;;;;;;;;21.07;31.06;97054.13;5017561;28;994;-76
2022/11/24 12:40:04;;;;;;;;;;;;;;;20.92;31.28;97053.09;5033914;28;969;-75
2022/11/24 12:42:48;;;;;;;;;;;;;;;21.19;31.00;97052.44;5033822;28;1039;-77
2022/11/24 12:45:15;;;;;;;;;;;;;;;21.19;31.04;97050.41;5034170;28;926;-76
2022/11/24 12:47:59;;;;;;;;;;;;;;;21.09;30.82;97051.63;5033968;28;1042;-76
2022/11/24 12:50:28;;;;;;;;;;;;;;;20.86;31.48;97049.31;5020366;28;1902;-77
2022/11/24 12:52:59;;;;;;;;;;;;;;;20.86;31.08;97054.97;5076223;28;953;-76
2022/11/24 12:55:25;;;;;;;;;;;;;;;20.78;31.43;97058.06;5058239;28;980;-76
2022/11/24 12:57:54;;;;;;;;;;;;;;;21.02;32.00;97060.38;5053449;28;1034;-76
2022/11/24 13:00:21;;;;;;;;;;;;;;;21.04;31.71;97063.53;5053702;28;1013;-76
2022/11/24 13:02:56;;;;;;;;;;;;;;;20.98;31.76;97051.25;5053825;28;1018;-76